createdAt,value
2018-12-06T00:00:08.181Z,1009.19
2018-12-06T00:01:08.102Z,1009.17
2018-12-06T00:02:08.093Z,1009.16
2018-12-06T00:03:08.082Z,1009.12
2018-12-06T00:04:08.086Z,1009.11
2018-12-06T00:05:08.073Z,1009.12
2018-12-06T00:06:08.055Z,1009.14
2018-12-06T00:07:08.039Z,1009.08
2018-12-06T00:08:08.028Z,1009.08
2018-12-06T00:09:08.043Z,1009.06
2018-12-06T00:10:08.015Z,1009.06
2018-12-06T00:11:08.008Z,1009.04
2018-12-06T00:12:08.039Z,1009.04
2018-12-06T00:13:08.033Z,1009.08
2018-12-06T00:14:07.980Z,1009.11
2018-12-06T00:15:07.955Z,1009.11
2018-12-06T00:16:07.943Z,1009.11
2018-12-06T00:17:07.932Z,1009.12
2018-12-06T00:18:07.936Z,1009.14
2018-12-06T00:19:07.949Z,1009.11
2018-12-06T00:20:07.916Z,1009.10
2018-12-06T00:21:07.886Z,1009.11
2018-12-06T00:22:07.885Z,1009.15
2018-12-06T00:23:07.865Z,1009.18
2018-12-06T00:24:07.894Z,1009.17
2018-12-06T00:25:07.855Z,1009.16
2018-12-06T00:26:07.841Z,1009.16
2018-12-06T00:27:07.825Z,1009.16
2018-12-06T00:28:07.837Z,1009.18
2018-12-06T00:29:07.816Z,1009.18
2018-12-06T00:30:07.849Z,1009.21
2018-12-06T00:31:07.780Z,1009.18
2018-12-06T00:32:07.769Z,1009.20
2018-12-06T00:33:07.770Z,1009.19
2018-12-06T00:34:07.748Z,1009.22
2018-12-06T00:35:07.781Z,1009.23
2018-12-06T00:36:07.734Z,1009.21
2018-12-06T00:37:07.751Z,1009.22
2018-12-06T00:38:07.709Z,1009.20
2018-12-06T00:39:07.713Z,1009.21
2018-12-06T00:40:07.685Z,1009.17
2018-12-06T00:41:07.733Z,1009.20
2018-12-06T00:42:07.666Z,1009.19
2018-12-06T00:43:07.665Z,1009.17
2018-12-06T00:44:07.685Z,1009.16
2018-12-06T00:45:07.640Z,1009.13
2018-12-06T00:46:07.641Z,1009.17
2018-12-06T00:47:07.609Z,1009.21
2018-12-06T00:48:07.615Z,1009.25
2018-12-06T00:49:07.591Z,1009.21
2018-12-06T00:50:07.576Z,1009.20
2018-12-06T00:51:07.603Z,1009.20
2018-12-06T00:52:07.560Z,1009.17
2018-12-06T00:53:07.545Z,1009.15
2018-12-06T00:54:07.537Z,1009.22
2018-12-06T00:55:07.527Z,1009.22
2018-12-06T00:56:07.542Z,1009.22
2018-12-06T00:57:07.500Z,1009.22
2018-12-06T00:58:07.508Z,1009.25
2018-12-06T00:59:07.488Z,1009.20
2018-12-06T01:00:07.470Z,1009.23
2018-12-06T01:01:07.478Z,1009.21
2018-12-06T01:02:07.451Z,1009.17
2018-12-06T01:03:07.464Z,1009.20
2018-12-06T01:04:07.435Z,1009.18
2018-12-06T01:05:07.440Z,1009.19
2018-12-06T01:06:07.454Z,1009.20
2018-12-06T01:07:07.398Z,1009.20
2018-12-06T01:08:07.391Z,1009.20
2018-12-06T01:09:07.379Z,1009.22
2018-12-06T01:10:07.363Z,1009.20
2018-12-06T01:11:07.353Z,1009.18
2018-12-06T01:12:07.362Z,1009.16
2018-12-06T01:13:07.327Z,1009.20
2018-12-06T01:14:07.319Z,1009.12
2018-12-06T01:15:07.311Z,1009.14
2018-12-06T01:16:07.304Z,1009.15
2018-12-06T01:17:07.305Z,1009.13
2018-12-06T01:18:07.275Z,1009.14
2018-12-06T01:19:07.265Z,1009.07
2018-12-06T01:20:07.253Z,1009.12
2018-12-06T01:21:07.247Z,1009.07
2018-12-06T01:22:07.262Z,1009.06
2018-12-06T01:23:07.234Z,1009.06
2018-12-06T01:24:07.248Z,1009.12
2018-12-06T01:25:07.235Z,1009.03
2018-12-06T01:26:07.193Z,1009.07
2018-12-06T01:27:07.185Z,1009.01
2018-12-06T01:28:07.195Z,1009.03
2018-12-06T01:29:07.158Z,1009.05
2018-12-06T01:30:07.145Z,1009.05
2018-12-06T01:31:07.152Z,1009.02
2018-12-06T01:32:07.133Z,1009.06
2018-12-06T01:33:07.161Z,1009.07
2018-12-06T01:34:07.113Z,1009.04
2018-12-06T01:35:07.117Z,1009.06
2018-12-06T01:36:07.117Z,1009.06
2018-12-06T01:37:07.086Z,1009.03
2018-12-06T01:38:07.083Z,1009.00
2018-12-06T01:39:07.135Z,1008.98
2018-12-06T01:40:07.063Z,1009.00
2018-12-06T01:41:07.036Z,1008.97
2018-12-06T01:42:07.091Z,1009.00
2018-12-06T01:43:07.044Z,1009.02
2018-12-06T01:44:07.008Z,1009.00
2018-12-06T01:45:06.987Z,1009.03
2018-12-06T01:46:06.976Z,1008.99
2018-12-06T01:47:06.967Z,1009.00
2018-12-06T01:48:06.971Z,1009.02
2018-12-06T01:49:06.994Z,1009.02
2018-12-06T01:50:06.932Z,1008.99
2018-12-06T01:51:06.931Z,1009.02
2018-12-06T01:52:06.916Z,1009.00
2018-12-06T01:53:06.926Z,1008.99
2018-12-06T01:54:06.888Z,1008.99
2018-12-06T01:55:06.877Z,1008.97
2018-12-06T01:56:06.866Z,1008.98
2018-12-06T01:57:06.864Z,1008.97
2018-12-06T01:58:06.893Z,1008.96
2018-12-06T01:59:06.866Z,1008.98
2018-12-06T02:00:06.827Z,1008.96
2018-12-06T02:01:06.816Z,1008.93
2018-12-06T02:02:06.803Z,1008.93
2018-12-06T02:03:06.808Z,1008.87
2018-12-06T02:04:06.854Z,1008.87
2018-12-06T02:05:06.771Z,1008.87
2018-12-06T02:06:06.758Z,1008.80
2018-12-06T02:07:06.745Z,1008.81
2018-12-06T02:08:06.760Z,1008.86
2018-12-06T02:09:06.728Z,1008.80
2018-12-06T02:10:06.718Z,1008.82
2018-12-06T02:11:06.705Z,1008.79
2018-12-06T02:12:06.704Z,1008.81
2018-12-06T02:13:06.706Z,1008.82
2018-12-06T02:14:06.668Z,1008.83
2018-12-06T02:15:06.658Z,1008.78
2018-12-06T02:16:06.667Z,1008.84
2018-12-06T02:17:06.643Z,1008.84
2018-12-06T02:18:06.644Z,1008.80
2018-12-06T02:19:06.617Z,1008.80
2018-12-06T02:20:06.645Z,1008.82
2018-12-06T02:21:06.595Z,1008.87
2018-12-06T02:22:06.580Z,1008.84
2018-12-06T02:23:06.602Z,1008.81
2018-12-06T02:24:06.563Z,1008.79
2018-12-06T02:25:06.559Z,1008.82
2018-12-06T02:26:06.573Z,1008.86
2018-12-06T02:27:06.537Z,1008.81
2018-12-06T02:28:06.554Z,1008.84
2018-12-06T02:29:06.516Z,1008.79
2018-12-06T02:30:06.508Z,1008.82
2018-12-06T02:31:06.500Z,1008.80
2018-12-06T02:32:06.487Z,1008.81
2018-12-06T02:33:06.467Z,1008.77
2018-12-06T02:34:06.474Z,1008.79
2018-12-06T02:35:06.450Z,1008.80
2018-12-06T02:36:06.455Z,1008.78
2018-12-06T02:37:06.421Z,1008.76
2018-12-06T02:38:06.417Z,1008.77
2018-12-06T02:39:06.434Z,1008.80
2018-12-06T02:40:06.393Z,1008.74
2018-12-06T02:41:06.376Z,1008.70
2018-12-06T02:42:06.375Z,1008.67
2018-12-06T02:43:06.356Z,1008.70
2018-12-06T02:44:06.375Z,1008.68
2018-12-06T02:45:06.338Z,1008.64
2018-12-06T02:46:06.322Z,1008.63
2018-12-06T02:47:06.318Z,1008.65
2018-12-06T02:48:06.304Z,1008.63
2018-12-06T02:49:06.337Z,1008.59
2018-12-06T02:50:06.309Z,1008.58
2018-12-06T02:51:06.274Z,1008.57
2018-12-06T02:52:06.275Z,1008.58
2018-12-06T02:53:06.277Z,1008.56
2018-12-06T02:54:06.240Z,1008.61
2018-12-06T02:55:06.249Z,1008.54
2018-12-06T02:56:06.214Z,1008.61
2018-12-06T02:57:06.215Z,1008.59
2018-12-06T02:58:06.205Z,1008.56
2018-12-06T02:59:06.203Z,1008.55
2018-12-06T03:00:06.224Z,1008.52
2018-12-06T03:01:06.169Z,1008.56
2018-12-06T03:02:06.150Z,1008.57
2018-12-06T03:03:06.154Z,1008.52
2018-12-06T03:04:06.131Z,1008.55
2018-12-06T03:05:06.131Z,1008.52
2018-12-06T03:06:06.132Z,1008.52
2018-12-06T03:07:06.118Z,1008.52
2018-12-06T03:08:13.637Z,1008.52
2018-12-06T03:09:13.612Z,1008.50
2018-12-06T03:10:13.630Z,1008.54
2018-12-06T03:11:15.618Z,1008.53
2018-12-06T03:12:06.046Z,1008.58
2018-12-06T03:13:06.033Z,1008.53
2018-12-06T03:14:06.023Z,1008.54
2018-12-06T03:15:06.010Z,1008.50
2018-12-06T03:16:06.019Z,1008.50
2018-12-06T03:17:05.989Z,1008.52
2018-12-06T03:18:05.978Z,1008.55
2018-12-06T03:19:05.988Z,1008.53
2018-12-06T03:20:05.960Z,1008.51
2018-12-06T03:21:05.963Z,1008.53
2018-12-06T03:22:05.948Z,1008.52
2018-12-06T03:23:05.948Z,1008.51
2018-12-06T03:24:05.920Z,1008.54
2018-12-06T03:25:05.915Z,1008.46
2018-12-06T03:26:05.918Z,1008.46
2018-12-06T03:27:05.894Z,1008.51
2018-12-06T03:28:05.875Z,1008.49
2018-12-06T03:29:05.878Z,1008.43
2018-12-06T03:30:05.849Z,1008.49
2018-12-06T03:31:05.864Z,1008.44
2018-12-06T03:32:05.844Z,1008.47
2018-12-06T03:33:05.824Z,1008.49
2018-12-06T03:34:05.828Z,1008.45
2018-12-06T03:35:05.803Z,1008.48
2018-12-06T03:36:05.838Z,1008.49
2018-12-06T03:37:05.778Z,1008.44
2018-12-06T03:38:05.764Z,1008.46
2018-12-06T03:39:05.775Z,1008.48
2018-12-06T03:40:05.756Z,1008.56
2018-12-06T03:41:05.761Z,1008.50
2018-12-06T03:42:05.723Z,1008.51
2018-12-06T03:43:05.710Z,1008.55
2018-12-06T03:44:05.718Z,1008.56
2018-12-06T03:45:05.693Z,1008.53
2018-12-06T03:46:05.706Z,1008.55
2018-12-06T03:47:05.668Z,1008.60
2018-12-06T03:48:05.656Z,1008.58
2018-12-06T03:49:05.646Z,1008.62
2018-12-06T03:50:05.640Z,1008.61
2018-12-06T03:51:05.642Z,1008.61
2018-12-06T03:52:05.656Z,1008.63
2018-12-06T03:53:05.601Z,1008.55
2018-12-06T03:54:05.660Z,1008.61
2018-12-06T03:55:05.654Z,1008.59
2018-12-06T03:56:05.606Z,1008.57
2018-12-06T03:57:05.573Z,1008.62
2018-12-06T03:58:05.553Z,1008.66
2018-12-06T03:59:05.539Z,1008.66
2018-12-06T04:00:05.527Z,1008.67
2018-12-06T04:01:05.651Z,1008.67
2018-12-06T04:02:05.513Z,1008.66
2018-12-06T04:03:05.500Z,1008.62
2018-12-06T04:04:05.534Z,1008.65
2018-12-06T04:05:05.472Z,1008.60
2018-12-06T04:06:05.492Z,1008.64
2018-12-06T04:07:05.455Z,1008.62
2018-12-06T04:08:05.448Z,1008.64
2018-12-06T04:09:05.450Z,1008.71
2018-12-06T04:10:05.420Z,1008.66
2018-12-06T04:11:05.411Z,1008.69
2018-12-06T04:12:05.434Z,1008.66
2018-12-06T04:13:05.391Z,1008.69
2018-12-06T04:14:05.394Z,1008.66
2018-12-06T04:15:05.366Z,1008.64
2018-12-06T04:16:05.383Z,1008.61
2018-12-06T04:17:05.363Z,1008.60
2018-12-06T04:18:05.336Z,1008.59
2018-12-06T04:19:05.325Z,1008.63
2018-12-06T04:20:05.326Z,1008.66
2018-12-06T04:21:05.351Z,1008.59
2018-12-06T04:22:05.297Z,1008.64
2018-12-06T04:23:05.281Z,1008.66
2018-12-06T04:24:05.281Z,1008.60
2018-12-06T04:25:05.259Z,1008.61
2018-12-06T04:26:05.294Z,1008.67
2018-12-06T04:27:05.256Z,1008.53
2018-12-06T04:28:05.236Z,1008.66
2018-12-06T04:29:05.223Z,1008.60
2018-12-06T04:30:05.209Z,1008.54
2018-12-06T04:31:05.199Z,1008.59
2018-12-06T04:32:05.200Z,1008.70
2018-12-06T04:33:05.190Z,1008.69
2018-12-06T04:34:05.166Z,1008.69
2018-12-06T04:35:05.160Z,1008.69
2018-12-06T04:36:05.167Z,1008.76
2018-12-06T04:37:05.152Z,1008.75
2018-12-06T04:38:05.130Z,1008.79
2018-12-06T04:39:05.113Z,1008.79
2018-12-06T04:40:05.101Z,1008.84
2018-12-06T04:41:05.090Z,1008.82
2018-12-06T04:42:05.100Z,1008.85
2018-12-06T04:43:05.068Z,1008.87
2018-12-06T04:44:05.064Z,1008.89
2018-12-06T04:45:05.083Z,1008.86
2018-12-06T04:46:05.038Z,1008.87
2018-12-06T04:47:05.027Z,1008.85
2018-12-06T04:48:05.058Z,1008.87
2018-12-06T04:49:05.008Z,1008.85
2018-12-06T04:50:05.005Z,1008.89
2018-12-06T04:51:04.985Z,1008.87
2018-12-06T04:52:05.019Z,1008.87
2018-12-06T04:53:05.023Z,1008.90
2018-12-06T04:54:04.955Z,1008.90
2018-12-06T04:55:04.937Z,1008.87
2018-12-06T04:56:04.940Z,1008.88
2018-12-06T04:57:04.950Z,1008.89
2018-12-06T04:58:04.911Z,1008.86
2018-12-06T04:59:04.926Z,1008.89
2018-12-06T05:00:04.888Z,1008.97
2018-12-06T05:01:04.883Z,1008.94
2018-12-06T05:02:04.873Z,1008.94
2018-12-06T05:03:04.867Z,1009.00
2018-12-06T05:04:04.867Z,1009.06
2018-12-06T05:05:04.931Z,1009.03
2018-12-06T05:06:04.839Z,1009.03
2018-12-06T05:07:04.862Z,1009.03
2018-12-06T05:08:04.803Z,1009.04
2018-12-06T05:09:04.858Z,1009.02
2018-12-06T05:10:04.781Z,1009.08
2018-12-06T05:11:04.767Z,1009.02
2018-12-06T05:12:04.760Z,1009.04
2018-12-06T05:13:04.770Z,1009.06
2018-12-06T05:14:04.755Z,1009.05
2018-12-06T05:15:04.729Z,1009.09
2018-12-06T05:16:04.721Z,1009.10
2018-12-06T05:17:04.721Z,1009.12
2018-12-06T05:18:04.716Z,1009.10
2018-12-06T05:19:04.714Z,1009.12
2018-12-06T05:20:04.692Z,1009.10
2018-12-06T05:21:04.661Z,1009.16
2018-12-06T05:22:04.666Z,1009.14
2018-12-06T05:23:04.638Z,1009.16
2018-12-06T05:24:04.651Z,1009.16
2018-12-06T05:25:04.654Z,1009.14
2018-12-06T05:26:04.608Z,1009.18
2018-12-06T05:27:04.598Z,1009.17
2018-12-06T05:28:04.604Z,1009.20
2018-12-06T05:29:04.584Z,1009.24
2018-12-06T05:30:04.604Z,1009.21
2018-12-06T05:31:04.562Z,1009.16
2018-12-06T05:32:04.548Z,1009.21
2018-12-06T05:33:04.534Z,1009.22
2018-12-06T05:34:12.165Z,1009.18
2018-12-06T05:35:04.615Z,1009.19
2018-12-06T05:36:04.582Z,1009.20
2018-12-06T05:37:04.520Z,1009.26
2018-12-06T05:38:04.605Z,1009.32
2018-12-06T05:39:04.490Z,1009.24
2018-12-06T05:40:04.554Z,1009.22
2018-12-06T05:41:04.506Z,1009.17
2018-12-06T05:42:04.448Z,1009.22
2018-12-06T05:43:04.428Z,1009.23
2018-12-06T05:44:04.432Z,1009.24
2018-12-06T05:45:04.418Z,1009.26
2018-12-06T05:46:04.430Z,1009.32
2018-12-06T05:47:04.407Z,1009.32
2018-12-06T05:48:04.380Z,1009.25
2018-12-06T05:49:04.363Z,1009.32
2018-12-06T05:50:04.352Z,1009.31
2018-12-06T05:51:04.360Z,1009.34
2018-12-06T05:52:04.336Z,1009.33
2018-12-06T05:53:04.322Z,1009.31
2018-12-06T05:54:04.321Z,1009.38
2018-12-06T05:55:04.300Z,1009.35
2018-12-06T05:56:04.311Z,1009.39
2018-12-06T05:57:04.279Z,1009.37
2018-12-06T05:58:04.314Z,1009.36
2018-12-06T05:59:04.258Z,1009.37
2018-12-06T06:00:04.248Z,1009.34
2018-12-06T06:01:04.272Z,1009.32
2018-12-06T06:02:04.224Z,1009.38
2018-12-06T06:03:04.216Z,1009.42
2018-12-06T06:04:04.213Z,1009.48
2018-12-06T06:05:04.192Z,1009.52
2018-12-06T06:06:04.186Z,1009.52
2018-12-06T06:07:04.194Z,1009.54
2018-12-06T06:08:04.166Z,1009.58
2018-12-06T06:09:04.163Z,1009.60
2018-12-06T06:10:04.151Z,1009.58
2018-12-06T06:11:04.131Z,1009.61
2018-12-06T06:12:04.137Z,1009.58
2018-12-06T06:13:04.170Z,1009.57
2018-12-06T06:14:04.097Z,1009.60
2018-12-06T06:15:04.109Z,1009.58
2018-12-06T06:16:04.094Z,1009.57
2018-12-06T06:17:04.085Z,1009.53
2018-12-06T06:18:04.055Z,1009.57
2018-12-06T06:19:04.040Z,1009.60
2018-12-06T06:20:04.038Z,1009.58
2018-12-06T06:21:04.021Z,1009.61
2018-12-06T06:22:04.035Z,1009.66
2018-12-06T06:23:03.999Z,1009.59
2018-12-06T06:24:12.784Z,1009.58
2018-12-06T06:25:11.639Z,1009.62
2018-12-06T06:26:11.586Z,1009.61
2018-12-06T06:28:14.289Z,1009.66
2018-12-06T06:30:23.475Z,1009.59
2018-12-06T06:31:23.430Z,1009.54
2018-12-06T06:32:32.912Z,1009.57
2018-12-06T06:33:23.515Z,1009.56
2018-12-06T06:34:23.522Z,1009.60
2018-12-06T06:35:23.450Z,1009.58
2018-12-06T06:36:23.547Z,1009.58
2018-12-06T06:37:23.424Z,1009.55
2018-12-06T06:38:23.341Z,1009.60
2018-12-06T06:39:23.348Z,1009.62
2018-12-06T06:40:23.352Z,1009.70
2018-12-06T06:41:23.308Z,1009.72
2018-12-06T06:42:23.338Z,1009.76
2018-12-06T06:43:23.330Z,1009.84
2018-12-06T06:44:23.274Z,1009.85
2018-12-06T06:45:23.264Z,1009.87
2018-12-06T06:46:23.263Z,1009.85
2018-12-06T06:47:23.300Z,1009.81
2018-12-06T06:48:23.274Z,1009.85
2018-12-06T06:49:23.230Z,1009.86
2018-12-06T06:50:23.210Z,1009.88
2018-12-06T06:51:23.260Z,1009.93
2018-12-06T06:52:23.192Z,1009.99
2018-12-06T06:53:23.201Z,1010.04
2018-12-06T06:54:23.170Z,1010.08
2018-12-06T06:55:30.842Z,1010.14
2018-12-06T06:56:23.268Z,1010.18
2018-12-06T06:57:23.167Z,1010.17
2018-12-06T06:58:23.274Z,1010.16
2018-12-06T06:59:26.179Z,1010.18
2018-12-06T07:00:23.250Z,1010.19
2018-12-06T07:01:23.093Z,1010.17
2018-12-06T07:02:23.134Z,1010.26
2018-12-06T07:03:23.089Z,1010.30
2018-12-06T07:04:23.059Z,1010.26
2018-12-06T07:05:23.172Z,1010.28
2018-12-06T07:06:23.043Z,1010.31
2018-12-06T07:07:31.343Z,1010.32
2018-12-06T07:08:31.964Z,1010.29
2018-12-06T07:10:34.409Z,1010.29
2018-12-06T07:11:43.364Z,1010.34
2018-12-06T07:12:34.317Z,1010.34
2018-12-06T07:13:34.338Z,1010.38
2018-12-06T07:14:34.289Z,1010.40
2018-12-06T07:15:34.370Z,1010.45
2018-12-06T07:16:34.187Z,1010.50
2018-12-06T07:17:34.211Z,1010.52
2018-12-06T07:18:34.157Z,1010.53
2018-12-06T07:19:34.169Z,1010.54
2018-12-06T07:20:34.174Z,1010.55
2018-12-06T07:21:34.133Z,1010.51
2018-12-06T07:22:34.119Z,1010.50
2018-12-06T07:23:34.147Z,1010.49
2018-12-06T07:24:34.091Z,1010.41
2018-12-06T07:25:34.143Z,1010.44
2018-12-06T07:26:34.141Z,1010.47
2018-12-06T07:27:34.063Z,1010.53
2018-12-06T07:28:34.053Z,1010.63
2018-12-06T07:29:34.066Z,1010.65
2018-12-06T07:30:34.030Z,1010.59
2018-12-06T07:31:34.034Z,1010.62
2018-12-06T07:32:34.007Z,1010.61
2018-12-06T07:33:44.681Z,1010.56
2018-12-06T07:34:34.090Z,1010.54
2018-12-06T07:35:34.047Z,1010.54
2018-12-06T07:36:43.831Z,1010.56
2018-12-06T07:37:33.964Z,1010.59
2018-12-06T07:38:34.065Z,1010.67
2018-12-06T07:39:34.033Z,1010.66
2018-12-06T07:40:34.059Z,1010.69
2018-12-06T07:41:33.962Z,1010.66
2018-12-06T07:42:33.908Z,1010.65
2018-12-06T07:43:33.897Z,1010.59
2018-12-06T07:44:33.905Z,1010.65
2018-12-06T07:45:33.924Z,1010.69
2018-12-06T07:46:33.854Z,1010.72
2018-12-06T07:47:33.863Z,1010.71
2018-12-06T07:48:33.835Z,1010.73
2018-12-06T07:49:33.868Z,1010.71
2018-12-06T07:50:33.834Z,1010.70
2018-12-06T07:51:33.804Z,1010.69
2018-12-06T07:52:33.794Z,1010.72
2018-12-06T07:53:42.473Z,1010.74
2018-12-06T07:54:33.871Z,1010.78
2018-12-06T07:55:33.809Z,1010.80
2018-12-06T07:56:33.890Z,1010.81
2018-12-06T07:57:33.776Z,1010.81
2018-12-06T07:58:33.782Z,1010.81
2018-12-06T07:59:33.796Z,1010.82
2018-12-06T08:00:43.800Z,1010.85
2018-12-06T08:01:33.737Z,1010.84
2018-12-06T08:02:33.739Z,1010.83
2018-12-06T08:03:33.714Z,1010.78
2018-12-06T08:04:33.756Z,1010.76
2018-12-06T08:05:33.767Z,1010.80
2018-12-06T08:06:41.209Z,1010.77
2018-12-06T08:07:33.628Z,1010.81
2018-12-06T08:08:33.628Z,1010.86
2018-12-06T08:09:33.605Z,1010.91
2018-12-06T08:10:33.619Z,1010.92
2018-12-06T08:11:33.605Z,1010.93
2018-12-06T08:12:33.578Z,1010.92
2018-12-06T08:13:33.563Z,1010.89
2018-12-06T08:14:33.556Z,1010.89
2018-12-06T08:15:33.561Z,1010.81
2018-12-06T08:16:33.531Z,1010.88
2018-12-06T08:17:33.529Z,1010.91
2018-12-06T08:18:33.516Z,1010.94
2018-12-06T08:19:33.498Z,1010.96
2018-12-06T08:20:33.507Z,1010.95
2018-12-06T08:21:33.476Z,1010.96
2018-12-06T08:22:33.464Z,1010.92
2018-12-06T08:23:33.482Z,1010.90
2018-12-06T08:24:33.447Z,1010.90
2018-12-06T08:25:33.461Z,1010.88
2018-12-06T08:26:33.428Z,1010.92
2018-12-06T08:27:33.426Z,1010.98
2018-12-06T08:28:33.403Z,1010.95
2018-12-06T08:29:33.389Z,1010.96
2018-12-06T08:30:33.398Z,1010.87
2018-12-06T08:31:33.442Z,1010.89
2018-12-06T08:32:33.364Z,1010.96
2018-12-06T08:33:33.354Z,1010.98
2018-12-06T08:34:33.385Z,1010.94
2018-12-06T08:35:33.375Z,1010.94
2018-12-06T08:36:33.363Z,1010.88
2018-12-06T08:37:33.311Z,1010.88
2018-12-06T08:38:33.294Z,1010.87
2018-12-06T08:39:33.283Z,1010.86
2018-12-06T08:40:33.273Z,1010.86
2018-12-06T08:41:33.327Z,1010.95
2018-12-06T08:42:33.254Z,1010.97
2018-12-06T08:43:33.242Z,1010.95
2018-12-06T08:44:33.257Z,1010.96
2018-12-06T08:45:33.219Z,1010.88
2018-12-06T08:46:33.229Z,1010.81
2018-12-06T08:47:33.199Z,1010.84
2018-12-06T08:48:33.184Z,1010.86
2018-12-06T08:49:33.176Z,1010.90
2018-12-06T08:50:33.216Z,1010.94
2018-12-06T08:51:33.209Z,1010.94
2018-12-06T08:52:33.146Z,1010.99
2018-12-06T08:53:33.135Z,1010.97
2018-12-06T08:54:33.126Z,1011.01
2018-12-06T08:55:33.109Z,1011.00
2018-12-06T08:56:33.104Z,1011.01
2018-12-06T08:57:33.147Z,1011.01
2018-12-06T08:58:33.081Z,1011.07
2018-12-06T08:59:33.070Z,1011.09
2018-12-06T09:00:33.059Z,1011.13
2018-12-06T09:01:33.070Z,1011.14
2018-12-06T09:02:33.051Z,1011.10
2018-12-06T09:03:33.025Z,1011.07
2018-12-06T09:04:33.046Z,1011.03
2018-12-06T09:05:33.004Z,1011.03
2018-12-06T09:06:32.993Z,1011.10
2018-12-06T09:07:33.007Z,1011.13
2018-12-06T09:08:32.989Z,1011.12
2018-12-06T09:09:32.962Z,1011.16
2018-12-06T09:10:32.951Z,1011.21
2018-12-06T09:11:32.955Z,1011.16
2018-12-06T09:12:32.948Z,1011.20
2018-12-06T09:13:32.917Z,1011.22
2018-12-06T09:14:32.929Z,1011.18
2018-12-06T09:15:32.892Z,1011.25
2018-12-06T09:16:32.883Z,1011.20
2018-12-06T09:17:32.949Z,1011.21
2018-12-06T09:18:32.865Z,1011.21
2018-12-06T09:19:32.853Z,1011.20
2018-12-06T09:20:32.841Z,1011.14
2018-12-06T09:21:32.830Z,1011.16
2018-12-06T09:22:32.838Z,1011.07
2018-12-06T09:23:32.853Z,1011.08
2018-12-06T09:24:32.797Z,1011.07
2018-12-06T09:25:32.794Z,1011.05
2018-12-06T09:26:32.772Z,1011.07
2018-12-06T09:27:32.782Z,1011.06
2018-12-06T09:28:32.753Z,1010.99
2018-12-06T09:29:32.747Z,1011.03
2018-12-06T09:30:32.741Z,1010.99
2018-12-06T09:31:32.725Z,1010.97
2018-12-06T09:32:32.712Z,1011.00
2018-12-06T09:33:32.746Z,1010.98
2018-12-06T09:34:32.695Z,1010.88
2018-12-06T09:35:32.677Z,1010.86
2018-12-06T09:36:32.667Z,1010.82
2018-12-06T09:37:32.674Z,1010.83
2018-12-06T09:38:32.683Z,1010.84
2018-12-06T09:39:32.637Z,1010.79
2018-12-06T09:40:32.624Z,1010.76
2018-12-06T09:41:32.610Z,1010.78
2018-12-06T09:42:32.600Z,1010.84
2018-12-06T09:43:32.618Z,1010.81
2018-12-06T09:44:32.584Z,1010.86
2018-12-06T09:45:32.579Z,1010.88
2018-12-06T09:46:32.569Z,1010.98
2018-12-06T09:47:32.576Z,1011.05
2018-12-06T09:48:32.571Z,1011.08
2018-12-06T09:49:32.889Z,1011.14
2018-12-06T09:50:40.066Z,1011.14
2018-12-06T09:51:32.502Z,1011.19
2018-12-06T09:52:32.493Z,1011.14
2018-12-06T09:53:32.539Z,1011.15
2018-12-06T09:54:32.483Z,1011.12
2018-12-06T09:55:32.463Z,1011.14
2018-12-06T09:56:32.498Z,1011.20
2018-12-06T09:57:39.987Z,1011.23
2018-12-06T09:58:32.448Z,1011.31
2018-12-06T09:59:32.420Z,1011.27
2018-12-06T10:00:32.430Z,1011.34
2018-12-06T10:01:32.394Z,1011.30
2018-12-06T10:02:32.391Z,1011.36
2018-12-06T10:03:32.398Z,1011.37
2018-12-06T10:04:32.372Z,1011.40
2018-12-06T10:05:32.354Z,1011.41
2018-12-06T10:06:32.346Z,1011.42
2018-12-06T10:07:32.334Z,1011.46
2018-12-06T10:08:32.338Z,1011.45
2018-12-06T10:09:32.352Z,1011.45
2018-12-06T10:10:32.346Z,1011.45
2018-12-06T10:11:32.291Z,1011.49
2018-12-06T10:12:32.302Z,1011.46
2018-12-06T10:13:32.310Z,1011.49
2018-12-06T10:14:32.268Z,1011.51
2018-12-06T10:15:32.247Z,1011.54
2018-12-06T10:16:32.237Z,1011.53
2018-12-06T10:17:32.254Z,1011.55
2018-12-06T10:18:32.253Z,1011.54
2018-12-06T10:19:32.211Z,1011.54
2018-12-06T10:20:32.228Z,1011.58
2018-12-06T10:21:32.206Z,1011.53
2018-12-06T10:22:32.174Z,1011.53
2018-12-06T10:23:32.186Z,1011.52
2018-12-06T10:24:32.157Z,1011.47
2018-12-06T10:25:39.697Z,1011.47
2018-12-06T10:26:32.130Z,1011.46
2018-12-06T10:27:32.121Z,1011.48
2018-12-06T10:28:32.137Z,1011.41
2018-12-06T10:29:32.095Z,1011.38
2018-12-06T10:30:32.140Z,1011.47
2018-12-06T10:31:32.076Z,1011.48
2018-12-06T10:32:39.610Z,1011.48
2018-12-06T10:33:32.073Z,1011.58
2018-12-06T10:34:32.044Z,1011.56
2018-12-06T10:35:32.095Z,1011.60
2018-12-06T10:36:32.052Z,1011.61
2018-12-06T10:37:32.013Z,1011.58
2018-12-06T10:38:32.051Z,1011.57
2018-12-06T10:39:31.989Z,1011.56
2018-12-06T10:40:39.823Z,1011.52
2018-12-06T10:41:32.025Z,1011.51
2018-12-06T10:42:39.889Z,1011.54
2018-12-06T10:43:32.097Z,1011.57
2018-12-06T10:44:32.098Z,1011.54
2018-12-06T10:45:32.104Z,1011.50
2018-12-06T10:46:31.940Z,1011.50
2018-12-06T10:47:31.910Z,1011.54
2018-12-06T10:48:31.902Z,1011.52
2018-12-06T10:49:40.769Z,1011.57
2018-12-06T10:50:39.651Z,1011.60
2018-12-06T10:51:31.967Z,1011.55
2018-12-06T10:53:50.925Z,1011.57
2018-12-06T10:56:01.070Z,1011.56
2018-12-06T10:57:09.955Z,1011.55
2018-12-06T10:58:08.728Z,1011.52
2018-12-06T10:59:08.695Z,1011.52
2018-12-06T11:01:18.970Z,1011.53
2018-12-06T11:03:28.258Z,1011.54
2018-12-06T11:04:28.153Z,1011.52
2018-12-06T11:05:28.147Z,1011.55
2018-12-06T11:06:28.194Z,1011.56
2018-12-06T11:07:28.058Z,1011.57
2018-12-06T11:08:27.992Z,1011.53
2018-12-06T11:10:45.974Z,1011.48
2018-12-06T11:11:45.821Z,1011.47
2018-12-06T11:12:45.853Z,1011.57
2018-12-06T11:15:03.996Z,1011.47
2018-12-06T11:16:03.991Z,1011.35
2018-12-06T11:17:03.905Z,1011.35
2018-12-06T11:18:03.916Z,1011.36
2018-12-06T11:19:03.921Z,1011.42
2018-12-06T11:20:03.922Z,1011.37
2018-12-06T11:21:11.942Z,1011.37
2018-12-06T11:22:03.915Z,1011.31
2018-12-06T11:23:11.525Z,1011.28
2018-12-06T11:24:03.896Z,1011.27
2018-12-06T11:25:03.958Z,1011.31
2018-12-06T11:26:03.883Z,1011.35
2018-12-06T11:27:03.803Z,1011.36
2018-12-06T11:28:03.814Z,1011.35
2018-12-06T11:29:12.806Z,1011.41
2018-12-06T11:30:03.856Z,1011.41
2018-12-06T11:31:03.801Z,1011.39
2018-12-06T11:32:03.861Z,1011.41
2018-12-06T11:33:03.815Z,1011.41
2018-12-06T11:34:03.762Z,1011.39
2018-12-06T11:35:03.765Z,1011.40
2018-12-06T11:36:03.961Z,1011.45
2018-12-06T11:37:12.539Z,1011.47
2018-12-06T11:38:12.796Z,1011.49
2018-12-06T11:39:04.011Z,1011.41
2018-12-06T11:40:03.711Z,1011.46
2018-12-06T11:41:03.785Z,1011.52
2018-12-06T11:42:03.669Z,1011.49
2018-12-06T11:43:03.628Z,1011.46
2018-12-06T11:44:03.614Z,1011.45
2018-12-06T11:45:03.579Z,1011.45
2018-12-06T11:46:03.660Z,1011.48
2018-12-06T11:47:03.643Z,1011.50
2018-12-06T11:48:03.553Z,1011.54
2018-12-06T11:49:12.694Z,1011.55
2018-12-06T11:50:03.697Z,1011.60
2018-12-06T11:51:03.626Z,1011.58
2018-12-06T11:52:12.240Z,1011.55
2018-12-06T11:53:03.672Z,1011.60
2018-12-06T11:54:11.878Z,1011.64
2018-12-06T11:55:03.618Z,1011.59
2018-12-06T11:56:13.633Z,1011.56
2018-12-06T11:57:03.580Z,1011.58
2018-12-06T11:58:03.552Z,1011.58
2018-12-06T11:59:11.246Z,1011.52
2018-12-06T12:01:21.412Z,1011.56
2018-12-06T12:02:21.319Z,1011.55
2018-12-06T12:03:21.234Z,1011.53
2018-12-06T12:04:21.296Z,1011.57
2018-12-06T12:05:21.163Z,1011.58
2018-12-06T12:06:21.450Z,1011.56
2018-12-06T12:07:21.200Z,1011.60
2018-12-06T12:08:21.137Z,1011.56
2018-12-06T12:09:29.818Z,1011.56
2018-12-06T12:10:21.200Z,1011.58
2018-12-06T12:11:21.171Z,1011.60
2018-12-06T12:12:31.422Z,1011.60
2018-12-06T12:13:28.891Z,1011.65
2018-12-06T12:14:21.108Z,1011.65
2018-12-06T12:15:29.663Z,1011.67
2018-12-06T12:16:21.423Z,1011.64
2018-12-06T12:17:21.088Z,1011.66